sensor_id;sensor_type;location;lat;lon;timestamp;pressure;altitude;pressure_sealevel;temperature;humidity
30554;BME280;17335;50.720;7.452;2023-05-03T00:01:54;100399.13;;;3.16;100.00
30554;BME280;17335;50.720;7.452;2023-05-03T00:04:22;100399.84;;;3.19;100.00
30554;BME280;17335;50.720;7.452;2023-05-03T00:06:49;100400.50;;;3.25;100.00
30554;BME280;17335;50.720;7.452;2023-05-03T00:09:16;100399.78;;;3.21;100.00
30554;BME280;17335;50.720;7.452;2023-05-03T00:11:43;100401.66;;;3.19;100.00
30554;BME280;17335;50.720;7.452;2023-05-03T00:14:09;100401.00;;;3.14;100.00
30554;BME280;17335;50.720;7.452;2023-05-03T00:16:36;100398.22;;;3.17;100.00
30554;BME280;17335;50.720;7.452;2023-05-03T00:19:02;100387.88;;;3.11;100.00
30554;BME280;17335;50.720;7.452;2023-05-03T00:21:29;100387.16;;;3.07;100.00
30554;BME280;17335;50.720;7.452;2023-05-03T00:23:55;100390.81;;;3.05;100.00
30554;BME280;17335;50.720;7.452;2023-05-03T00:26:22;100383.72;;;3.05;100.00
30554;BME280;17335;50.720;7.452;2023-05-03T00:28:49;100381.13;;;3.04;100.00
30554;BME280;17335;50.720;7.452;2023-05-03T00:31:15;100376.84;;;3.01;100.00
30554;BME280;17335;50.720;7.452;2023-05-03T00:33:42;100383.28;;;2.95;100.00
30554;BME280;17335;50.720;7.452;2023-05-03T00:36:13;100385.28;;;2.90;100.00
30554;BME280;17335;50.720;7.452;2023-05-03T00:38:40;100380.34;;;2.83;100.00
30554;BME280;17335;50.720;7.452;2023-05-03T00:41:10;100373.09;;;2.86;100.00
30554;BME280;17335;50.720;7.452;2023-05-03T00:43:38;100381.13;;;2.85;100.00
30554;BME280;17335;50.720;7.452;2023-05-03T00:46:05;100384.63;;;2.85;100.00
30554;BME280;17335;50.720;7.452;2023-05-03T00:48:44;100383.97;;;2.80;100.00
30554;BME280;17335;50.720;7.452;2023-05-03T00:51:13;100380.53;;;2.78;100.00
30554;BME280;17335;50.720;7.452;2023-05-03T00:53:41;100373.38;;;2.80;100.00
30554;BME280;17335;50.720;7.452;2023-05-03T00:56:08;100377.75;;;2.81;100.00
30554;BME280;17335;50.720;7.452;2023-05-03T00:58:36;100379.56;;;2.80;100.00
30554;BME280;17335;50.720;7.452;2023-05-03T01:01:05;100383.97;;;2.80;100.00
30554;BME280;17335;50.720;7.452;2023-05-03T01:03:36;100377.75;;;2.81;100.00
30554;BME280;17335;50.720;7.452;2023-05-03T01:06:16;100375.75;;;2.86;100.00
30554;BME280;17335;50.720;7.452;2023-05-03T01:09:11;100381.19;;;2.83;100.00
30554;BME280;17335;50.720;7.452;2023-05-03T01:15:00;100378.53;;;2.83;100.00
30554;BME280;17335;50.720;7.452;2023-05-03T01:17:38;100377.03;;;2.77;100.00
30554;BME280;17335;50.720;7.452;2023-05-03T01:20:06;100379.09;;;2.71;100.00
30554;BME280;17335;50.720;7.452;2023-05-03T01:25:23;100376.34;;;2.53;100.00
30554;BME280;17335;50.720;7.452;2023-05-03T01:27:50;100390.53;;;2.52;100.00
30554;BME280;17335;50.720;7.452;2023-05-03T01:30:16;100392.44;;;2.49;100.00
30554;BME280;17335;50.720;7.452;2023-05-03T01:33:07;100391.91;;;2.40;100.00
30554;BME280;17335;50.720;7.452;2023-05-03T01:35:40;100396.31;;;2.41;100.00
30554;BME280;17335;50.720;7.452;2023-05-03T01:38:10;100404.25;;;2.41;100.00
30554;BME280;17335;50.720;7.452;2023-05-03T01:40:48;100394.78;;;2.36;100.00
30554;BME280;17335;50.720;7.452;2023-05-03T01:43:17;100393.19;;;2.32;100.00
30554;BME280;17335;50.720;7.452;2023-05-03T01:45:44;100388.88;;;2.29;100.00
30554;BME280;17335;50.720;7.452;2023-05-03T01:48:14;100392.78;;;2.20;100.00
30554;BME280;17335;50.720;7.452;2023-05-03T01:50:41;100391.25;;;2.15;100.00
30554;BME280;17335;50.720;7.452;2023-05-03T01:53:08;100389.84;;;2.06;100.00
30554;BME280;17335;50.720;7.452;2023-05-03T01:55:34;100403.25;;;2.03;100.00
30554;BME280;17335;50.720;7.452;2023-05-03T01:58:01;100398.88;;;2.02;100.00
30554;BME280;17335;50.720;7.452;2023-05-03T02:00:27;100403.09;;;2.06;100.00
30554;BME280;17335;50.720;7.452;2023-05-03T02:02:54;100405.75;;;2.06;100.00
30554;BME280;17335;50.720;7.452;2023-05-03T02:05:22;100402.06;;;2.10;100.00
30554;BME280;17335;50.720;7.452;2023-05-03T02:07:49;100401.84;;;2.15;100.00
30554;BME280;17335;50.720;7.452;2023-05-03T02:10:15;100409.59;;;2.19;100.00
30554;BME280;17335;50.720;7.452;2023-05-03T02:12:45;100409.72;;;2.16;100.00
30554;BME280;17335;50.720;7.452;2023-05-03T02:15:11;100404.66;;;2.12;100.00
30554;BME280;17335;50.720;7.452;2023-05-03T02:17:42;100406.69;;;2.05;100.00
30554;BME280;17335;50.720;7.452;2023-05-03T02:20:09;100411.09;;;2.04;100.00
30554;BME280;17335;50.720;7.452;2023-05-03T02:22:36;100413.69;;;2.06;100.00
30554;BME280;17335;50.720;7.452;2023-05-03T02:25:03;100406.09;;;1.98;100.00
30554;BME280;17335;50.720;7.452;2023-05-03T02:27:30;100406.94;;;1.99;100.00
30554;BME280;17335;50.720;7.452;2023-05-03T02:29:56;100409.91;;;1.91;100.00
30554;BME280;17335;50.720;7.452;2023-05-03T02:32:23;100411.00;;;1.85;100.00
30554;BME280;17335;50.720;7.452;2023-05-03T02:34:51;100412.25;;;1.77;100.00
30554;BME280;17335;50.720;7.452;2023-05-03T02:37:17;100420.47;;;1.71;100.00
30554;BME280;17335;50.720;7.452;2023-05-03T02:39:44;100423.97;;;1.71;100.00
30554;BME280;17335;50.720;7.452;2023-05-03T02:42:11;100417.06;;;1.67;100.00
30554;BME280;17335;50.720;7.452;2023-05-03T02:44:37;100418.91;;;1.65;100.00
30554;BME280;17335;50.720;7.452;2023-05-03T02:47:03;100414.72;;;1.59;100.00
30554;BME280;17335;50.720;7.452;2023-05-03T02:49:30;100416.53;;;1.59;100.00
30554;BME280;17335;50.720;7.452;2023-05-03T02:51:57;100420.97;;;1.58;100.00
30554;BME280;17335;50.720;7.452;2023-05-03T02:54:24;100421.97;;;1.54;100.00
30554;BME280;17335;50.720;7.452;2023-05-03T02:56:51;100420.34;;;1.52;100.00
30554;BME280;17335;50.720;7.452;2023-05-03T02:59:17;100416.88;;;1.49;100.00
30554;BME280;17335;50.720;7.452;2023-05-03T03:01:45;100412.63;;;1.45;100.00
30554;BME280;17335;50.720;7.452;2023-05-03T03:04:12;100427.81;;;1.40;100.00
30554;BME280;17335;50.720;7.452;2023-05-03T03:06:38;100427.25;;;1.32;100.00
30554;BME280;17335;50.720;7.452;2023-05-03T03:09:05;100427.25;;;1.32;100.00
30554;BME280;17335;50.720;7.452;2023-05-03T03:11:32;100427.25;;;1.32;100.00
30554;BME280;17335;50.720;7.452;2023-05-03T03:13:58;100425.41;;;1.34;100.00
30554;BME280;17335;50.720;7.452;2023-05-03T03:16:24;100431.53;;;1.36;100.00
30554;BME280;17335;50.720;7.452;2023-05-03T03:18:51;100429.91;;;1.32;100.00
30554;BME280;17335;50.720;7.452;2023-05-03T03:21:18;100421.84;;;1.35;100.00
30554;BME280;17335;50.720;7.452;2023-05-03T03:23:44;100426.44;;;1.30;100.00
30554;BME280;17335;50.720;7.452;2023-05-03T03:26:11;100415.94;;;1.28;100.00
30554;BME280;17335;50.720;7.452;2023-05-03T03:28:38;100424.84;;;1.26;100.00
30554;BME280;17335;50.720;7.452;2023-05-03T03:31:04;100418.78;;;1.24;100.00
30554;BME280;17335;50.720;7.452;2023-05-03T03:33:31;100418.94;;;1.19;100.00
30554;BME280;17335;50.720;7.452;2023-05-03T03:35:57;100418.16;;;1.17;100.00
30554;BME280;17335;50.720;7.452;2023-05-03T03:38:24;100419.97;;;1.15;100.00
30554;BME280;17335;50.720;7.452;2023-05-03T03:40:51;100415.56;;;1.16;100.00
30554;BME280;17335;50.720;7.452;2023-05-03T03:43:18;100408.41;;;1.18;100.00
30554;BME280;17335;50.720;7.452;2023-05-03T03:45:44;100412.13;;;1.14;100.00
30554;BME280;17335;50.720;7.452;2023-05-03T03:48:10;100412.22;;;1.10;100.00
30554;BME280;17335;50.720;7.452;2023-05-03T03:50:37;100407.25;;;1.01;100.00
30554;BME280;17335;50.720;7.452;2023-05-03T03:53:04;100410.09;;;0.97;100.00
30554;BME280;17335;50.720;7.452;2023-05-03T03:55:31;100400.38;;;0.97;100.00
30554;BME280;17335;50.720;7.452;2023-05-03T03:57:57;100400.28;;;1.00;100.00
30554;BME280;17335;50.720;7.452;2023-05-03T04:00:24;100405.56;;;1.00;100.00
30554;BME280;17335;50.720;7.452;2023-05-03T04:02:50;100404.56;;;1.03;100.00
30554;BME280;17335;50.720;7.452;2023-05-03T04:05:17;100401.91;;;1.03;100.00
30554;BME280;17335;50.720;7.452;2023-05-03T04:07:43;100405.44;;;1.03;100.00
30554;BME280;17335;50.720;7.452;2023-05-03T04:10:10;100403.66;;;1.04;100.00
30554;BME280;17335;50.720;7.452;2023-05-03T04:12:36;100401.81;;;1.06;100.00
30554;BME280;17335;50.720;7.452;2023-05-03T04:15:03;100409.63;;;1.09;100.00
30554;BME280;17335;50.720;7.452;2023-05-03T04:17:30;100409.56;;;1.10;100.00
30554;BME280;17335;50.720;7.452;2023-05-03T04:19:58;100405.19;;;1.09;100.00
30554;BME280;17335;50.720;7.452;2023-05-03T04:22:25;100403.97;;;1.18;100.00
30554;BME280;17335;50.720;7.452;2023-05-03T04:24:51;100408.41;;;1.18;100.00
30554;BME280;17335;50.720;7.452;2023-05-03T04:27:20;100401.22;;;1.21;100.00
30554;BME280;17335;50.720;7.452;2023-05-03T04:29:46;100405.47;;;1.25;100.00
30554;BME280;17335;50.720;7.452;2023-05-03T04:32:14;100402.97;;;1.22;100.00
30554;BME280;17335;50.720;7.452;2023-05-03T04:34:42;100397.84;;;1.18;100.00
30554;BME280;17335;50.720;7.452;2023-05-03T04:37:09;100398.53;;;1.23;100.00
30554;BME280;17335;50.720;7.452;2023-05-03T04:39:36;100385.91;;;1.29;100.00
30554;BME280;17335;50.720;7.452;2023-05-03T04:42:02;100394.53;;;1.35;100.00
30554;BME280;17335;50.720;7.452;2023-05-03T04:44:31;100385.59;;;1.37;100.00
30554;BME280;17335;50.720;7.452;2023-05-03T04:46:57;100378.56;;;1.38;100.00
30554;BME280;17335;50.720;7.452;2023-05-03T04:49:24;100382.59;;;1.46;100.00
30554;BME280;17335;50.720;7.452;2023-05-03T04:51:51;100379.88;;;1.70;100.00
30554;BME280;17335;50.720;7.452;2023-05-03T04:54:19;100380.06;;;1.87;100.00
30554;BME280;17335;50.720;7.452;2023-05-03T04:56:46;100374.91;;;2.05;100.00
30554;BME280;17335;50.720;7.452;2023-05-03T04:59:13;100369.03;;;2.19;100.00
30554;BME280;17335;50.720;7.452;2023-05-03T05:01:39;100372.69;;;2.35;100.00
30554;BME280;17335;50.720;7.452;2023-05-03T05:04:06;100369.78;;;2.62;100.00
30554;BME280;17335;50.720;7.452;2023-05-03T05:06:32;100366.22;;;3.39;100.00
30554;BME280;17335;50.720;7.452;2023-05-03T05:08:59;100357.16;;;4.65;100.00
30554;BME280;17335;50.720;7.452;2023-05-03T05:11:26;100350.25;;;7.07;100.00
30554;BME280;17335;50.720;7.452;2023-05-03T05:13:52;100335.63;;;9.47;100.00
30554;BME280;17335;50.720;7.452;2023-05-03T05:16:19;100324.44;;;11.04;100.00
30554;BME280;17335;50.720;7.452;2023-05-03T05:18:45;100317.59;;;11.88;100.00
30554;BME280;17335;50.720;7.452;2023-05-03T05:21:13;100323.88;;;11.77;100.00
30554;BME280;17335;50.720;7.452;2023-05-03T05:23:40;100330.34;;;12.18;100.00
30554;BME280;17335;50.720;7.452;2023-05-03T05:26:07;100343.25;;;12.97;95.65
30554;BME280;17335;50.720;7.452;2023-05-03T05:28:33;100341.44;;;13.58;86.27
30554;BME280;17335;50.720;7.452;2023-05-03T05:31:00;100336.47;;;14.31;80.40
30554;BME280;17335;50.720;7.452;2023-05-03T05:33:26;100333.09;;;14.86;69.12
30554;BME280;17335;50.720;7.452;2023-05-03T05:35:53;100335.31;;;14.43;70.79
30554;BME280;17335;50.720;7.452;2023-05-03T05:38:21;100352.22;;;13.07;79.45
30554;BME280;17335;50.720;7.452;2023-05-03T05:40:48;100351.63;;;12.21;90.56
30554;BME280;17335;50.720;7.452;2023-05-03T05:43:14;100352.63;;;13.34;79.96
30554;BME280;17335;50.720;7.452;2023-05-03T05:45:41;100348.66;;;12.45;77.57
30554;BME280;17335;50.720;7.452;2023-05-03T05:48:07;100359.25;;;10.83;92.52
30554;BME280;17335;50.720;7.452;2023-05-03T05:50:34;100368.78;;;9.70;100.00
30554;BME280;17335;50.720;7.452;2023-05-03T05:53:01;100373.19;;;8.58;100.00
30554;BME280;17335;50.720;7.452;2023-05-03T05:55:28;100376.03;;;7.89;100.00
30554;BME280;17335;50.720;7.452;2023-05-03T05:57:54;100374.75;;;7.13;100.00
30554;BME280;17335;50.720;7.452;2023-05-03T06:00:21;100380.81;;;6.44;100.00
30554;BME280;17335;50.720;7.452;2023-05-03T06:02:48;100385.13;;;6.16;100.00
30554;BME280;17335;50.720;7.452;2023-05-03T06:05:15;100394.91;;;5.85;100.00
30554;BME280;17335;50.720;7.452;2023-05-03T06:07:42;100398.31;;;5.87;100.00
30554;BME280;17335;50.720;7.452;2023-05-03T06:10:09;100396.38;;;5.75;100.00
30554;BME280;17335;50.720;7.452;2023-05-03T06:12:36;100404.91;;;5.66;100.00
30554;BME280;17335;50.720;7.452;2023-05-03T06:15:03;100406.78;;;5.79;100.00
30554;BME280;17335;50.720;7.452;2023-05-03T06:17:29;100398.69;;;5.65;100.00
30554;BME280;17335;50.720;7.452;2023-05-03T06:19:56;100405.25;;;5.59;100.00
30554;BME280;17335;50.720;7.452;2023-05-03T06:22:24;100408.84;;;5.74;100.00
30554;BME280;17335;50.720;7.452;2023-05-03T06:24:50;100406.31;;;5.87;100.00
30554;BME280;17335;50.720;7.452;2023-05-03T06:27:17;100410.63;;;5.90;100.00
30554;BME280;17335;50.720;7.452;2023-05-03T06:29:43;100415.63;;;5.96;100.00
30554;BME280;17335;50.720;7.452;2023-05-03T06:32:10;100411.66;;;5.87;100.00
30554;BME280;17335;50.720;7.452;2023-05-03T06:34:37;100413.81;;;5.96;100.00
30554;BME280;17335;50.720;7.452;2023-05-03T06:37:04;100409.47;;;6.10;100.00
30554;BME280;17335;50.720;7.452;2023-05-03T06:39:32;100409.56;;;6.08;100.00
30554;BME280;17335;50.720;7.452;2023-05-03T06:41:58;100408.09;;;6.18;100.00
30554;BME280;17335;50.720;7.452;2023-05-03T06:44:25;100411.09;;;6.43;100.00
30554;BME280;17335;50.720;7.452;2023-05-03T06:46:51;100404.47;;;6.64;100.00
30554;BME280;17335;50.720;7.452;2023-05-03T06:49:18;100402.69;;;6.79;100.00
30554;BME280;17335;50.720;7.452;2023-05-03T06:51:44;100399.16;;;6.93;100.00
30554;BME280;17335;50.720;7.452;2023-05-03T06:54:11;100399.34;;;7.04;100.00
30554;BME280;17335;50.720;7.452;2023-05-03T06:56:37;100392.63;;;7.40;100.00
30554;BME280;17335;50.720;7.452;2023-05-03T06:59:04;100394.56;;;7.65;100.00
30554;BME280;17335;50.720;7.452;2023-05-03T07:01:31;100402.22;;;7.84;100.00
30554;BME280;17335;50.720;7.452;2023-05-03T07:03:57;100407.22;;;8.03;100.00
30554;BME280;17335;50.720;7.452;2023-05-03T07:06:24;100398.47;;;8.14;100.00
30554;BME280;17335;50.720;7.452;2023-05-03T07:08:51;100393.56;;;8.21;100.00
30554;BME280;17335;50.720;7.452;2023-05-03T07:11:19;100393.44;;;8.22;100.00
30554;BME280;17335;50.720;7.452;2023-05-03T07:13:50;100388.84;;;8.24;100.00
30554;BME280;17335;50.720;7.452;2023-05-03T07:16:17;100401.81;;;8.31;100.00
30554;BME280;17335;50.720;7.452;2023-05-03T07:18:45;100396.56;;;8.42;100.00
30554;BME280;17335;50.720;7.452;2023-05-03T07:21:13;100394.28;;;8.50;100.00
30554;BME280;17335;50.720;7.452;2023-05-03T07:23:40;100392.78;;;8.59;100.00
30554;BME280;17335;50.720;7.452;2023-05-03T07:26:07;100395.78;;;8.67;100.00
30554;BME280;17335;50.720;7.452;2023-05-03T07:28:33;100393.22;;;8.66;100.00
30554;BME280;17335;50.720;7.452;2023-05-03T07:31:02;100381.97;;;8.86;100.00
30554;BME280;17335;50.720;7.452;2023-05-03T07:33:29;100389.34;;;8.70;100.00
30554;BME280;17335;50.720;7.452;2023-05-03T07:35:57;100390.66;;;8.77;100.00
30554;BME280;17335;50.720;7.452;2023-05-03T07:38:23;100379.81;;;8.91;100.00
30554;BME280;17335;50.720;7.452;2023-05-03T07:40:50;100383.13;;;9.08;100.00
30554;BME280;17335;50.720;7.452;2023-05-03T07:43:18;100383.34;;;9.05;100.00
30554;BME280;17335;50.720;7.452;2023-05-03T07:45:46;100383.31;;;9.17;100.00
30554;BME280;17335;50.720;7.452;2023-05-03T07:48:12;100381.69;;;9.28;100.00
30554;BME280;17335;50.720;7.452;2023-05-03T07:50:42;100379.81;;;9.41;100.00
30554;BME280;17335;50.720;7.452;2023-05-03T07:53:10;100362.22;;;9.50;100.00
30554;BME280;17335;50.720;7.452;2023-05-03T07:55:37;100364.88;;;9.26;100.00
30554;BME280;17335;50.720;7.452;2023-05-03T07:58:03;100369.44;;;9.36;100.00
30554;BME280;17335;50.720;7.452;2023-05-03T08:00:30;100359.84;;;9.45;100.00
30554;BME280;17335;50.720;7.452;2023-05-03T08:02:57;100359.53;;;9.50;100.00
30554;BME280;17335;50.720;7.452;2023-05-03T08:05:24;100359.19;;;9.54;100.00
30554;BME280;17335;50.720;7.452;2023-05-03T08:07:50;100354.91;;;9.52;100.00
30554;BME280;17335;50.720;7.452;2023-05-03T08:10:17;100351.19;;;9.66;100.00
30554;BME280;17335;50.720;7.452;2023-05-03T08:12:44;100349.44;;;9.77;100.00
30554;BME280;17335;50.720;7.452;2023-05-03T08:15:11;100350.44;;;9.76;100.00
30554;BME280;17335;50.720;7.452;2023-05-03T08:17:44;100356.84;;;9.74;100.00
30554;BME280;17335;50.720;7.452;2023-05-03T08:20:11;100354.25;;;9.85;100.00
30554;BME280;17335;50.720;7.452;2023-05-03T08:22:38;100351.94;;;9.92;100.00
30554;BME280;17335;50.720;7.452;2023-05-03T08:25:06;100344.41;;;9.97;100.00
30554;BME280;17335;50.720;7.452;2023-05-03T08:27:33;100344.78;;;10.04;100.00
30554;BME280;17335;50.720;7.452;2023-05-03T08:30:00;100342.75;;;10.19;100.00
30554;BME280;17335;50.720;7.452;2023-05-03T08:32:27;100335.91;;;10.39;100.00
30554;BME280;17335;50.720;7.452;2023-05-03T08:34:54;100341.38;;;10.37;100.00
30554;BME280;17335;50.720;7.452;2023-05-03T08:37:22;100331.19;;;10.18;100.00
30554;BME280;17335;50.720;7.452;2023-05-03T08:39:48;100340.78;;;10.34;100.00
30554;BME280;17335;50.720;7.452;2023-05-03T08:42:15;100339.50;;;10.26;100.00
30554;BME280;17335;50.720;7.452;2023-05-03T08:44:50;100346.56;;;10.27;100.00
30554;BME280;17335;50.720;7.452;2023-05-03T08:47:16;100338.59;;;10.50;100.00
30554;BME280;17335;50.720;7.452;2023-05-03T08:49:43;100345.31;;;10.56;100.00
30554;BME280;17335;50.720;7.452;2023-05-03T08:52:11;100343.84;;;10.51;100.00
30554;BME280;17335;50.720;7.452;2023-05-03T08:54:39;100331.13;;;10.54;100.00
30554;BME280;17335;50.720;7.452;2023-05-03T08:57:13;100336.88;;;10.60;100.00
30554;BME280;17335;50.720;7.452;2023-05-03T08:59:50;100333.63;;;10.68;100.00
30554;BME280;17335;50.720;7.452;2023-05-03T09:02:19;100331.41;;;10.84;100.00
30554;BME280;17335;50.720;7.452;2023-05-03T09:04:46;100331.78;;;11.02;100.00
30554;BME280;17335;50.720;7.452;2023-05-03T09:07:13;100325.03;;;10.97;100.00
30554;BME280;17335;50.720;7.452;2023-05-03T09:09:41;100321.88;;;11.14;100.00
30554;BME280;17335;50.720;7.452;2023-05-03T09:12:32;100311.19;;;11.35;100.00
30554;BME280;17335;50.720;7.452;2023-05-03T09:14:59;100317.66;;;11.44;100.00
30554;BME280;17335;50.720;7.452;2023-05-03T09:17:26;100317.00;;;11.52;100.00
30554;BME280;17335;50.720;7.452;2023-05-03T09:19:55;100315.19;;;11.41;100.00
30554;BME280;17335;50.720;7.452;2023-05-03T09:22:25;100327.13;;;11.59;100.00
30554;BME280;17335;50.720;7.452;2023-05-03T09:24:58;100316.00;;;11.64;100.00
30554;BME280;17335;50.720;7.452;2023-05-03T09:27:26;100319.41;;;11.66;98.06
30554;BME280;17335;50.720;7.452;2023-05-03T09:29:53;100316.06;;;11.74;96.68
30554;BME280;17335;50.720;7.452;2023-05-03T09:32:20;100307.38;;;11.81;87.81
30554;BME280;17335;50.720;7.452;2023-05-03T09:34:50;100305.41;;;11.51;92.39
30554;BME280;17335;50.720;7.452;2023-05-03T09:37:35;100304.28;;;11.86;100.00
30554;BME280;17335;50.720;7.452;2023-05-03T09:40:05;100293.69;;;12.06;94.80
30554;BME280;17335;50.720;7.452;2023-05-03T09:42:36;100296.19;;;12.18;96.55
30554;BME280;17335;50.720;7.452;2023-05-03T09:45:03;100293.16;;;12.12;95.70
30554;BME280;17335;50.720;7.452;2023-05-03T09:47:30;100296.31;;;12.17;93.19
30554;BME280;17335;50.720;7.452;2023-05-03T09:50:00;100297.69;;;12.11;100.00
30554;BME280;17335;50.720;7.452;2023-05-03T09:52:28;100298.63;;;12.22;95.23
30554;BME280;17335;50.720;7.452;2023-05-03T09:54:56;100298.94;;;12.28;94.43
30554;BME280;17335;50.720;7.452;2023-05-03T09:57:22;100291.22;;;12.66;97.31
30554;BME280;17335;50.720;7.452;2023-05-03T09:59:49;100276.34;;;12.71;81.26
30554;BME280;17335;50.720;7.452;2023-05-03T10:02:16;100279.84;;;12.93;76.57
30554;BME280;17335;50.720;7.452;2023-05-03T10:04:50;100281.38;;;12.95;79.73
30554;BME280;17335;50.720;7.452;2023-05-03T10:07:24;100282.78;;;12.90;82.87
30554;BME280;17335;50.720;7.452;2023-05-03T10:09:53;100284.78;;;12.98;73.65
30554;BME280;17335;50.720;7.452;2023-05-03T10:12:24;100282.25;;;13.06;71.46
30554;BME280;17335;50.720;7.452;2023-05-03T10:14:53;100279.81;;;13.34;70.52
30554;BME280;17335;50.720;7.452;2023-05-03T10:17:27;100274.28;;;13.64;82.79
30554;BME280;17335;50.720;7.452;2023-05-03T10:20:23;100255.94;;;14.07;80.26
30554;BME280;17335;50.720;7.452;2023-05-03T10:25:28;100248.72;;;14.45;74.56
30554;BME280;17335;50.720;7.452;2023-05-03T10:28:06;100252.19;;;14.28;70.12
30554;BME280;17335;50.720;7.452;2023-05-03T10:30:35;100259.34;;;14.09;66.52
30554;BME280;17335;50.720;7.452;2023-05-03T10:35:51;100256.06;;;14.05;64.16
30554;BME280;17335;50.720;7.452;2023-05-03T10:38:26;100249.22;;;14.21;61.98
30554;BME280;17335;50.720;7.452;2023-05-03T10:40:54;100250.81;;;14.04;58.32
30554;BME280;17335;50.720;7.452;2023-05-03T10:46:03;100233.41;;;14.36;62.23
30554;BME280;17335;50.720;7.452;2023-05-03T10:48:31;100234.41;;;14.35;57.64
30554;BME280;17335;50.720;7.452;2023-05-03T10:53:54;100235.78;;;14.86;58.09
30554;BME280;17335;50.720;7.452;2023-05-03T10:56:20;100236.69;;;14.77;53.63
30554;BME280;17335;50.720;7.452;2023-05-03T10:58:48;100227.75;;;14.94;55.28
30554;BME280;17335;50.720;7.452;2023-05-03T11:01:23;100238.16;;;15.17;54.26
30554;BME280;17335;50.720;7.452;2023-05-03T11:06:38;100216.94;;;16.02;64.37
30554;BME280;17335;50.720;7.452;2023-05-03T11:09:08;100214.22;;;16.28;60.46
30554;BME280;17335;50.720;7.452;2023-05-03T11:11:36;100204.84;;;16.15;54.94
30554;BME280;17335;50.720;7.452;2023-05-03T11:14:04;100204.91;;;16.31;60.37
30554;BME280;17335;50.720;7.452;2023-05-03T11:16:31;100214.09;;;16.38;55.72
30554;BME280;17335;50.720;7.452;2023-05-03T11:18:59;100200.78;;;16.19;50.84
30554;BME280;17335;50.720;7.452;2023-05-03T11:21:26;100206.88;;;16.47;57.19
30554;BME280;17335;50.720;7.452;2023-05-03T11:23:52;100202.72;;;16.35;52.71
30554;BME280;17335;50.720;7.452;2023-05-03T11:26:19;100204.09;;;16.04;51.50
30554;BME280;17335;50.720;7.452;2023-05-03T11:28:52;100198.47;;;15.80;49.67
30554;BME280;17335;50.720;7.452;2023-05-03T11:31:19;100174.88;;;16.16;56.76
30554;BME280;17335;50.720;7.452;2023-05-03T11:33:48;100183.00;;;16.50;55.76
30554;BME280;17335;50.720;7.452;2023-05-03T11:36:15;100190.25;;;16.84;53.90
30554;BME280;17335;50.720;7.452;2023-05-03T11:38:41;100190.16;;;16.60;52.76
30554;BME280;17335;50.720;7.452;2023-05-03T11:41:14;100192.47;;;16.46;50.65
30554;BME280;17335;50.720;7.452;2023-05-03T11:43:46;100191.72;;;16.36;45.81
30554;BME280;17335;50.720;7.452;2023-05-03T11:46:21;100182.59;;;16.37;45.28
30554;BME280;17335;50.720;7.452;2023-05-03T11:48:49;100190.47;;;16.57;47.28
30554;BME280;17335;50.720;7.452;2023-05-03T11:51:23;100183.13;;;16.83;50.39
30554;BME280;17335;50.720;7.452;2023-05-03T11:53:50;100185.81;;;16.75;46.38
30554;BME280;17335;50.720;7.452;2023-05-03T11:56:18;100181.63;;;16.89;47.63
30554;BME280;17335;50.720;7.452;2023-05-03T11:58:54;100182.91;;;17.19;49.12
30554;BME280;17335;50.720;7.452;2023-05-03T12:01:23;100167.44;;;17.12;46.08
30554;BME280;17335;50.720;7.452;2023-05-03T12:04:01;100157.78;;;17.17;45.50
30554;BME280;17335;50.720;7.452;2023-05-03T12:06:32;100156.13;;;17.49;49.98
30554;BME280;17335;50.720;7.452;2023-05-03T12:09:02;100141.84;;;17.80;52.30
30554;BME280;17335;50.720;7.452;2023-05-03T12:11:41;100153.41;;;17.66;48.13
30554;BME280;17335;50.720;7.452;2023-05-03T12:14:09;100145.22;;;17.98;53.85
30554;BME280;17335;50.720;7.452;2023-05-03T12:16:50;100144.00;;;18.17;51.39
30554;BME280;17335;50.720;7.452;2023-05-03T12:19:28;100151.91;;;18.35;51.08
30554;BME280;17335;50.720;7.452;2023-05-03T12:21:59;100150.94;;;18.20;46.25
30554;BME280;17335;50.720;7.452;2023-05-03T12:24:45;100147.22;;;18.13;51.75
30554;BME280;17335;50.720;7.452;2023-05-03T12:27:14;100143.06;;;18.33;54.65
30554;BME280;17335;50.720;7.452;2023-05-03T12:29:44;100137.75;;;18.48;50.20
30554;BME280;17335;50.720;7.452;2023-05-03T12:32:13;100135.13;;;18.63;52.05
30554;BME280;17335;50.720;7.452;2023-05-03T12:34:40;100131.59;;;18.54;49.31
30554;BME280;17335;50.720;7.452;2023-05-03T12:37:07;100130.72;;;18.62;47.02
30554;BME280;17335;50.720;7.452;2023-05-03T12:39:37;100130.91;;;18.13;46.80
30554;BME280;17335;50.720;7.452;2023-05-03T12:42:07;100128.19;;;18.13;47.05
30554;BME280;17335;50.720;7.452;2023-05-03T12:44:36;100115.25;;;18.23;47.01
30554;BME280;17335;50.720;7.452;2023-05-03T12:47:07;100113.47;;;17.99;47.82
30554;BME280;17335;50.720;7.452;2023-05-03T12:49:35;100114.69;;;17.63;45.23
30554;BME280;17335;50.720;7.452;2023-05-03T12:52:05;100109.25;;;17.72;43.60
30554;BME280;17335;50.720;7.452;2023-05-03T12:54:52;100112.63;;;17.98;41.87
30554;BME280;17335;50.720;7.452;2023-05-03T12:57:21;100111.56;;;18.16;42.59
30554;BME280;17335;50.720;7.452;2023-05-03T12:59:50;100101.63;;;18.31;43.39
30554;BME280;17335;50.720;7.452;2023-05-03T13:02:28;100107.25;;;18.61;44.46
30554;BME280;17335;50.720;7.452;2023-05-03T13:04:57;100102.75;;;18.85;45.46
30554;BME280;17335;50.720;7.452;2023-05-03T13:07:27;100099.88;;;18.47;41.87
30554;BME280;17335;50.720;7.452;2023-05-03T13:09:57;100094.31;;;17.92;42.87
30554;BME280;17335;50.720;7.452;2023-05-03T13:12:27;100085.47;;;18.38;43.68
30554;BME280;17335;50.720;7.452;2023-05-03T13:14:55;100078.13;;;18.70;44.62
30554;BME280;17335;50.720;7.452;2023-05-03T13:17:22;100077.41;;;19.07;42.04